createdAt,value
2022-12-18T00:04:21.784Z,14.02
2022-12-18T00:09:24.929Z,12.68
2022-12-18T00:14:33.115Z,12.70
2022-12-18T00:19:35.236Z,13.48
2022-12-18T00:24:37.486Z,12.43
2022-12-18T00:29:39.600Z,14.80
2022-12-18T00:34:41.760Z,14.13
2022-12-18T00:39:43.893Z,15.63
2022-12-18T00:44:46.040Z,12.65
2022-12-18T00:49:48.208Z,12.93
2022-12-18T00:54:50.310Z,12.65
2022-12-18T00:59:52.449Z,13.35
2022-12-18T01:04:54.543Z,13.77
2022-12-18T01:09:56.934Z,14.82
2022-12-18T01:14:59.359Z,9.95
2022-12-18T01:20:01.711Z,13.32
2022-12-18T01:25:05.332Z,10.25
2022-12-18T01:30:08.403Z,13.70
2022-12-18T01:35:10.564Z,7.93
2022-12-18T01:40:12.964Z,13.18
2022-12-18T01:45:14.985Z,11.85
2022-12-18T01:50:40.513Z,11.50
2022-12-18T01:55:47.719Z,10.97
2022-12-18T02:00:49.916Z,12.10
2022-12-18T02:06:16.029Z,12.57
2022-12-18T02:11:30.345Z,12.40
2022-12-18T02:17:02.138Z,13.62
2022-12-18T02:22:13.493Z,14.60
2022-12-18T02:27:16.368Z,13.65
2022-12-18T02:32:27.996Z,13.25
2022-12-18T02:37:31.863Z,14.27
2022-12-18T02:42:34.038Z,14.02
2022-12-18T02:47:40.234Z,11.70
2022-12-18T02:53:10.307Z,11.85
2022-12-18T02:58:17.965Z,12.93
2022-12-18T03:03:30.300Z,13.38
2022-12-18T03:08:42.856Z,12.85
2022-12-18T03:13:57.165Z,14.13
2022-12-18T03:19:04.048Z,13.10
2022-12-18T03:24:10.598Z,14.45
2022-12-18T03:29:42.183Z,12.48
2022-12-18T03:34:47.502Z,14.43
2022-12-18T03:39:49.804Z,14.03
2022-12-18T03:45:06.238Z,14.18
2022-12-18T03:50:19.079Z,15.10
2022-12-18T03:55:23.690Z,13.05
2022-12-18T04:00:25.916Z,13.93
2022-12-18T04:05:29.653Z,15.63
2022-12-18T04:10:31.839Z,15.10
2022-12-18T04:15:37.944Z,13.77
2022-12-18T04:20:40.143Z,13.05
2022-12-18T04:25:42.210Z,14.07
2022-12-18T04:30:44.355Z,14.90
2022-12-18T04:35:47.630Z,14.02
2022-12-18T04:40:49.809Z,11.85
2022-12-18T04:45:51.944Z,11.98
2022-12-18T04:50:54.096Z,13.62
2022-12-18T04:56:05.494Z,13.97
2022-12-18T05:01:08.594Z,12.10
2022-12-18T05:06:11.019Z,12.48
2022-12-18T05:11:16.777Z,12.20
2022-12-18T05:16:18.856Z,12.98
2022-12-18T05:21:20.984Z,14.27
2022-12-18T05:26:23.234Z,14.38
2022-12-18T05:31:25.434Z,15.60
2022-12-18T05:36:27.535Z,14.45
2022-12-18T05:41:29.842Z,13.68
2022-12-18T05:46:31.981Z,13.17
2022-12-18T05:51:34.050Z,15.30
2022-12-18T05:56:36.140Z,14.82
2022-12-18T06:01:38.358Z,13.07
2022-12-18T06:06:40.481Z,14.80
2022-12-18T06:11:42.716Z,12.47
2022-12-18T06:16:45.233Z,13.85
2022-12-18T06:21:48.085Z,14.05
2022-12-18T06:26:50.149Z,13.13
2022-12-18T06:31:52.269Z,13.88
2022-12-18T06:36:54.389Z,13.93
2022-12-18T06:41:56.765Z,13.27
2022-12-18T06:46:58.885Z,13.80
2022-12-18T06:52:00.929Z,14.10
2022-12-18T06:57:03.073Z,13.18
2022-12-18T07:02:05.751Z,13.40
2022-12-18T07:07:07.927Z,14.82
2022-12-18T07:12:10.529Z,13.07
2022-12-18T07:17:13.014Z,14.57
2022-12-18T07:22:15.140Z,15.38
2022-12-18T07:27:17.497Z,15.33
2022-12-18T07:32:20.237Z,13.98
2022-12-18T07:37:22.329Z,13.00
2022-12-18T07:42:33.287Z,14.40
2022-12-18T07:47:37.130Z,13.18
2022-12-18T07:52:39.200Z,13.50
2022-12-18T07:57:50.360Z,14.10
2022-12-18T08:02:53.575Z,12.90
2022-12-18T08:07:56.002Z,13.30
2022-12-18T08:13:03.110Z,14.45
2022-12-18T08:18:12.711Z,13.43
2022-12-18T08:23:16.290Z,13.20
2022-12-18T08:28:18.479Z,13.05
2022-12-18T08:33:20.548Z,13.07
2022-12-18T08:38:23.872Z,13.48
2022-12-18T08:43:44.631Z,14.27
2022-12-18T08:48:46.856Z,14.20
2022-12-18T08:53:49.004Z,14.85
2022-12-18T08:58:55.376Z,14.63
2022-12-18T09:03:57.584Z,13.00
2022-12-18T09:08:59.794Z,15.17
2022-12-18T09:14:02.712Z,14.65
2022-12-18T09:19:06.774Z,15.32
2022-12-18T09:24:13.518Z,15.02
2022-12-18T09:29:18.958Z,17.27
2022-12-18T09:34:22.877Z,15.27
2022-12-18T09:39:24.985Z,15.20
2022-12-18T09:44:31.943Z,15.50
2022-12-18T09:49:40.401Z,15.32
2022-12-18T09:54:47.757Z,14.25
2022-12-18T10:00:19.584Z,16.53
2022-12-18T10:05:40.196Z,16.15
2022-12-18T10:10:53.494Z,15.10
2022-12-18T10:16:01.589Z,16.52
2022-12-18T10:21:22.684Z,17.15
2022-12-18T10:26:26.064Z,18.20
2022-12-18T10:31:28.577Z,19.95
2022-12-18T10:36:31.018Z,19.85
2022-12-18T10:41:33.389Z,21.15
2022-12-18T10:46:35.882Z,19.65
2022-12-18T10:51:39.088Z,20.13
2022-12-18T10:56:43.115Z,20.42
2022-12-18T11:01:48.090Z,20.25
2022-12-18T11:06:56.692Z,20.40
2022-12-18T11:12:07.108Z,20.08
2022-12-18T11:17:26.455Z,20.03
2022-12-18T11:22:48.823Z,19.90
2022-12-18T11:28:03.542Z,18.35
2022-12-18T11:33:11.769Z,18.10
2022-12-18T11:38:24.365Z,18.73
2022-12-18T11:43:32.990Z,18.33
2022-12-18T11:48:46.374Z,18.60
2022-12-18T11:53:48.477Z,15.45
2022-12-18T11:59:32.050Z,16.95
2022-12-18T12:04:42.692Z,16.48
2022-12-18T12:09:50.756Z,16.70
2022-12-18T12:15:14.252Z,17.42
2022-12-18T12:20:53.486Z,17.17
2022-12-18T12:26:07.710Z,16.50
2022-12-18T12:31:46.657Z,16.55
2022-12-18T12:37:08.894Z,17.57
2022-12-18T12:42:46.508Z,17.67
2022-12-18T12:47:52.062Z,16.92
2022-12-18T12:52:56.861Z,18.10
2022-12-18T12:58:15.600Z,17.42
2022-12-18T13:03:45.129Z,18.93
2022-12-18T13:09:01.675Z,18.05
2022-12-18T13:14:03.919Z,18.30
2022-12-18T13:19:27.564Z,16.33
2022-12-18T13:24:32.405Z,15.60
2022-12-18T13:29:46.593Z,15.97
2022-12-18T13:34:50.187Z,15.88
2022-12-18T13:39:52.286Z,14.63
2022-12-18T13:44:54.472Z,15.15
2022-12-18T13:49:58.137Z,14.80
2022-12-18T13:55:03.419Z,36.77
2022-12-18T14:00:26.814Z,16.95
2022-12-18T14:05:33.330Z,15.15
2022-12-18T14:10:47.974Z,14.45
2022-12-18T14:15:52.279Z,14.70
2022-12-18T14:20:58.541Z,14.73
2022-12-18T14:26:25.626Z,16.87
2022-12-18T14:31:31.038Z,16.73
2022-12-18T14:36:33.138Z,15.15
2022-12-18T14:41:35.473Z,15.63
2022-12-18T14:46:39.371Z,15.73
2022-12-18T14:51:49.679Z,16.23
2022-12-18T14:57:16.642Z,14.95
2022-12-18T15:02:29.770Z,15.60
2022-12-18T15:07:48.667Z,16.73
2022-12-18T15:12:56.978Z,19.83
2022-12-18T15:18:01.003Z,19.10
2022-12-18T15:23:03.186Z,17.40
2022-12-18T15:28:17.047Z,16.55
2022-12-18T15:33:27.746Z,16.17
2022-12-18T15:38:30.123Z,14.30
2022-12-18T15:43:35.314Z,13.27
2022-12-18T15:48:46.662Z,15.18
2022-12-18T15:53:51.203Z,13.35
2022-12-18T15:58:53.279Z,14.35
2022-12-18T16:03:56.092Z,14.47
2022-12-18T16:08:58.313Z,13.85
2022-12-18T16:14:00.794Z,14.57
2022-12-18T16:19:03.154Z,15.15
2022-12-18T16:24:05.821Z,15.00
2022-12-18T16:29:07.928Z,14.60
2022-12-18T16:34:28.802Z,15.05
2022-12-18T16:39:32.036Z,14.70
2022-12-18T16:44:35.309Z,15.02
2022-12-18T16:49:38.607Z,16.58
2022-12-18T16:54:43.955Z,16.13
2022-12-18T16:59:47.134Z,17.25
2022-12-18T17:04:49.284Z,16.77
2022-12-18T17:09:51.634Z,16.02
2022-12-18T17:14:53.735Z,16.40
2022-12-18T17:19:55.922Z,17.37
2022-12-18T17:24:58.077Z,17.02
2022-12-18T17:30:00.161Z,16.52
2022-12-18T17:35:06.970Z,17.85
2022-12-18T17:40:10.196Z,17.35
2022-12-18T17:45:12.353Z,16.60
2022-12-18T17:50:14.636Z,18.15
2022-12-18T17:55:16.900Z,17.08
2022-12-18T18:00:21.151Z,17.83
2022-12-18T18:05:23.264Z,18.00
2022-12-18T18:10:25.459Z,19.70
2022-12-18T18:15:27.573Z,18.12
2022-12-18T18:20:30.553Z,17.05
2022-12-18T18:25:37.440Z,18.50
2022-12-18T18:30:39.896Z,17.65
2022-12-18T18:35:53.732Z,16.93
2022-12-18T18:41:05.660Z,18.65
2022-12-18T18:46:07.875Z,18.45
2022-12-18T18:51:14.678Z,18.48
2022-12-18T19:01:50.612Z,19.23
2022-12-18T19:06:52.946Z,19.85
2022-12-18T19:12:15.425Z,20.08
2022-12-18T19:17:17.580Z,21.20
2022-12-18T19:22:19.942Z,23.12
2022-12-18T19:27:22.113Z,26.63
2022-12-18T19:32:24.354Z,26.23
2022-12-18T19:37:26.882Z,27.30
2022-12-18T19:42:35.017Z,24.80
2022-12-18T19:47:37.721Z,24.45
2022-12-18T19:52:39.850Z,26.67
2022-12-18T19:57:42.063Z,25.42
2022-12-18T20:02:44.351Z,26.52
2022-12-18T20:07:46.527Z,25.62
2022-12-18T20:12:48.618Z,25.62
2022-12-18T20:17:50.719Z,30.30
2022-12-18T20:22:53.030Z,28.77
2022-12-18T20:27:55.265Z,31.45
2022-12-18T20:32:57.407Z,32.42
2022-12-18T20:37:59.524Z,30.73
2022-12-18T20:43:03.139Z,27.67
2022-12-18T20:48:05.400Z,29.02
2022-12-18T20:53:07.507Z,29.25
2022-12-18T20:58:09.733Z,29.40
2022-12-18T21:03:12.947Z,31.00
2022-12-18T21:08:15.263Z,28.27
2022-12-18T21:13:17.492Z,28.87
2022-12-18T21:18:20.746Z,31.95
2022-12-18T21:23:23.060Z,26.80
2022-12-18T21:28:25.240Z,29.52
2022-12-18T21:33:27.349Z,29.63
2022-12-18T21:38:29.496Z,30.00
2022-12-18T21:43:50.412Z,32.17
2022-12-18T21:48:52.498Z,31.70
2022-12-18T21:53:54.644Z,32.40
2022-12-18T21:58:57.466Z,32.13
2022-12-18T22:03:59.765Z,32.35
2022-12-18T22:09:02.077Z,30.20
2022-12-18T22:14:04.227Z,27.62
2022-12-18T22:19:06.678Z,33.70
2022-12-18T22:24:13.795Z,33.53
2022-12-18T22:29:37.468Z,32.95
2022-12-18T22:34:39.664Z,32.28
2022-12-18T22:39:42.290Z,30.77
2022-12-18T22:44:44.778Z,32.55
2022-12-18T22:49:46.925Z,34.47
2022-12-18T22:54:48.988Z,30.52
2022-12-18T22:59:51.785Z,29.05
2022-12-18T23:04:53.879Z,28.10
2022-12-18T23:09:59.581Z,28.48
2022-12-18T23:15:04.887Z,28.87
2022-12-18T23:20:07.421Z,28.65
2022-12-18T23:25:09.839Z,26.27
2022-12-18T23:30:12.519Z,25.25
2022-12-18T23:35:15.772Z,24.70
2022-12-18T23:40:18.717Z,23.90
2022-12-18T23:45:20.813Z,23.30
2022-12-18T23:50:28.941Z,23.45
2022-12-18T23:55:32.115Z,22.95
